createdAt,value
2023-09-11T00:00:59.195Z,16.50
2023-09-11T00:05:05.613Z,17.17
2023-09-11T00:09:11.060Z,17.80
2023-09-11T00:13:14.432Z,17.07
2023-09-11T00:17:17.807Z,16.13
2023-09-11T00:21:22.591Z,17.67
2023-09-11T00:25:29.812Z,15.93
2023-09-11T00:29:33.211Z,15.90
2023-09-11T00:33:37.776Z,16.40
2023-09-11T00:37:42.500Z,15.63
2023-09-11T00:41:45.915Z,17.33
2023-09-11T00:45:52.204Z,18.00
2023-09-11T00:49:57.320Z,16.60
2023-09-11T00:54:02.281Z,17.07
2023-09-11T00:58:05.907Z,17.50
2023-09-11T01:02:09.755Z,17.50
2023-09-11T01:06:13.219Z,17.00
2023-09-11T01:10:18.095Z,16.90
2023-09-11T01:14:21.750Z,15.87
2023-09-11T01:18:32.493Z,16.80
2023-09-11T01:22:54.539Z,16.60
2023-09-11T01:27:33.264Z,15.77
2023-09-11T01:31:40.209Z,17.57
2023-09-11T01:35:43.525Z,16.63
2023-09-11T01:39:46.969Z,17.60
2023-09-11T01:43:52.622Z,19.07
2023-09-11T01:47:58.422Z,20.23
2023-09-11T01:52:03.778Z,17.17
2023-09-11T01:56:07.303Z,18.50
2023-09-11T02:00:13.157Z,18.43
2023-09-11T02:04:18.231Z,18.03
2023-09-11T02:08:21.704Z,17.37
2023-09-11T02:12:25.018Z,17.30
2023-09-11T02:16:33.342Z,17.47
2023-09-11T02:20:38.113Z,16.83
2023-09-11T02:24:41.679Z,17.20
2023-09-11T02:28:45.201Z,17.13
2023-09-11T02:32:48.594Z,16.30
2023-09-11T02:36:53.378Z,20.67
2023-09-11T02:41:08.454Z,18.30
2023-09-11T02:45:13.548Z,18.23
2023-09-11T02:49:16.846Z,17.13
2023-09-11T02:53:22.204Z,17.07
2023-09-11T02:57:26.050Z,17.57
2023-09-11T03:01:29.356Z,17.57
2023-09-11T03:05:33.959Z,17.20
2023-09-11T03:09:39.025Z,17.83
2023-09-11T03:13:42.354Z,16.93
2023-09-11T03:17:50.047Z,17.27
2023-09-11T03:21:55.678Z,19.07
2023-09-11T03:26:01.809Z,17.20
2023-09-11T03:30:05.885Z,17.30
2023-09-11T03:34:09.511Z,18.23
2023-09-11T03:38:13.141Z,17.03
2023-09-11T03:42:17.908Z,17.93
2023-09-11T03:46:21.878Z,17.93
2023-09-11T03:50:25.389Z,16.37
2023-09-11T03:54:28.967Z,16.50
2023-09-11T03:58:33.870Z,17.43
2023-09-11T04:02:37.296Z,17.07
2023-09-11T04:06:40.645Z,16.93
2023-09-11T04:10:45.326Z,19.07
2023-09-11T04:14:50.178Z,19.90
2023-09-11T04:18:53.871Z,17.90
2023-09-11T04:22:57.536Z,16.63
2023-09-11T04:27:02.170Z,18.93
2023-09-11T04:31:34.202Z,17.57
2023-09-11T04:35:37.871Z,18.10
2023-09-11T04:45:00.256Z,18.37
2023-09-11T04:55:14.381Z,17.53
2023-09-11T04:59:26.362Z,20.90
2023-09-11T05:03:30.051Z,19.00
2023-09-11T05:07:33.854Z,17.93
2023-09-11T05:15:58.767Z,18.77
2023-09-11T05:20:02.157Z,18.20
2023-09-11T05:24:06.016Z,18.03
2023-09-11T05:28:09.488Z,20.20
2023-09-11T05:32:15.147Z,18.47
2023-09-11T05:36:18.882Z,19.83
2023-09-11T05:40:22.858Z,19.63
2023-09-11T05:44:26.175Z,21.00
2023-09-11T05:48:31.396Z,19.60
2023-09-11T05:52:35.069Z,19.50
2023-09-11T05:56:38.476Z,20.70
2023-09-11T06:00:42.127Z,21.33
2023-09-11T06:04:46.839Z,28.10
2023-09-11T06:08:51.200Z,44.80
2023-09-11T06:12:54.637Z,29.50
2023-09-11T06:16:58.183Z,23.90
2023-09-11T06:21:04.204Z,22.80
2023-09-11T06:25:08.383Z,22.33
2023-09-11T06:29:12.017Z,21.93
2023-09-11T06:33:15.465Z,24.20
2023-09-11T06:37:20.272Z,24.60
2023-09-11T06:41:23.541Z,24.00
2023-09-11T06:45:45.623Z,32.83
2023-09-11T06:49:49.561Z,23.60
2023-09-11T06:53:54.877Z,27.13
2023-09-11T06:58:00.066Z,25.90
2023-09-11T07:02:04.898Z,28.60
2023-09-11T07:06:08.375Z,27.93
2023-09-11T07:10:17.216Z,25.13
2023-09-11T07:14:24.160Z,24.03
2023-09-11T07:18:28.263Z,24.33
2023-09-11T07:22:32.843Z,23.10
2023-09-11T07:26:37.653Z,20.80
2023-09-11T07:30:41.344Z,23.37
2023-09-11T07:34:44.779Z,20.50
2023-09-11T07:38:48.296Z,18.90
2023-09-11T07:42:54.284Z,19.63
2023-09-11T07:46:57.776Z,17.93
2023-09-11T08:16:32.418Z,14.13
2023-09-11T08:20:35.945Z,11.90
2023-09-11T08:24:40.382Z,12.73
2023-09-11T08:28:44.004Z,12.17
2023-09-11T08:32:49.175Z,12.73
2023-09-11T08:36:52.734Z,11.80
2023-09-11T08:40:56.437Z,12.23
2023-09-11T08:44:59.944Z,11.00
2023-09-11T08:49:07.691Z,11.43
2023-09-11T08:53:13.133Z,9.80
2023-09-11T08:57:18.214Z,12.00
2023-09-11T09:01:23.504Z,10.93
2023-09-11T09:05:29.493Z,10.30
2023-09-11T09:09:34.315Z,10.20
2023-09-11T09:13:38.552Z,11.00
2023-09-11T09:17:41.947Z,11.20
2023-09-11T09:22:17.120Z,10.50
2023-09-11T09:26:21.242Z,9.53
2023-09-11T09:30:25.903Z,11.43
2023-09-11T09:34:29.373Z,11.83
2023-09-11T09:38:34.477Z,11.73
2023-09-11T09:42:42.517Z,10.60
2023-09-11T09:46:46.870Z,10.73
2023-09-11T09:50:53.833Z,11.50
2023-09-11T09:55:00.777Z,12.10
2023-09-11T09:59:04.154Z,10.02
2023-09-11T10:03:09.578Z,11.30
2023-09-11T10:07:13.081Z,11.00
2023-09-11T10:11:31.608Z,11.83
2023-09-11T10:15:37.517Z,10.37
2023-09-11T10:19:41.975Z,10.77
2023-09-11T10:24:29.130Z,11.20
2023-09-11T10:28:40.399Z,10.77
2023-09-11T10:32:51.048Z,9.90
2023-09-11T10:37:11.509Z,10.07
2023-09-11T10:41:15.771Z,10.43
2023-09-11T10:45:30.581Z,10.13
2023-09-11T10:49:42.157Z,8.90
2023-09-11T10:53:55.791Z,9.47
2023-09-11T10:58:00.523Z,9.93
2023-09-11T11:02:14.586Z,9.27
2023-09-11T11:06:20.323Z,10.30
2023-09-11T11:10:23.870Z,10.33
2023-09-11T11:14:27.496Z,9.20
2023-09-11T11:18:33.236Z,9.17
2023-09-11T11:22:42.457Z,8.77
2023-09-11T11:26:46.763Z,7.63
2023-09-11T11:30:54.102Z,10.33
2023-09-11T11:35:02.708Z,8.27
2023-09-11T11:39:06.266Z,9.97
2023-09-11T11:43:09.655Z,8.73
2023-09-11T11:47:13.385Z,8.40
2023-09-11T11:51:28.334Z,7.80
2023-09-11T11:55:31.875Z,9.00
2023-09-11T11:59:36.343Z,7.87
2023-09-11T12:03:48.812Z,8.33
2023-09-11T12:07:53.642Z,9.23
2023-09-11T12:11:58.100Z,8.47
2023-09-11T12:16:02.715Z,8.07
2023-09-11T12:20:14.149Z,9.23
2023-09-11T12:24:19.068Z,8.97
2023-09-11T12:28:24.703Z,8.40
2023-09-11T12:32:31.147Z,7.93
2023-09-11T12:36:34.983Z,7.97
2023-09-11T12:40:40.162Z,7.70
2023-09-11T12:44:44.597Z,7.97
2023-09-11T12:48:48.844Z,7.00
2023-09-11T12:52:52.428Z,7.87
2023-09-11T12:56:57.683Z,8.37
2023-09-11T13:01:01.178Z,7.60
2023-09-11T13:05:08.701Z,7.47
2023-09-11T13:09:12.199Z,6.27
2023-09-11T13:13:29.101Z,6.87
2023-09-11T13:17:39.368Z,6.80
2023-09-11T13:21:42.924Z,6.70
2023-09-11T13:25:46.512Z,7.07
2023-09-11T13:30:11.544Z,7.87
2023-09-11T13:34:14.974Z,7.43
2023-09-11T13:38:18.285Z,7.27
2023-09-11T13:42:35.289Z,7.07
2023-09-11T13:46:40.477Z,6.60
2023-09-11T13:50:44.325Z,7.67
2023-09-11T13:54:48.543Z,6.07
2023-09-11T13:58:52.850Z,7.03
2023-09-11T14:03:03.081Z,6.97
2023-09-11T14:07:07.568Z,6.73
2023-09-11T14:11:11.936Z,6.47
2023-09-11T14:15:16.947Z,7.20
2023-09-11T14:19:22.318Z,6.90
2023-09-11T14:23:25.682Z,7.50
2023-09-11T14:27:29.106Z,6.60
2023-09-11T14:31:34.219Z,7.03
2023-09-11T14:35:39.171Z,7.07
2023-09-11T14:39:42.976Z,7.60
2023-09-11T14:43:46.860Z,8.53
2023-09-11T14:47:51.021Z,7.27
2023-09-11T14:51:56.282Z,8.00
2023-09-11T14:56:02.282Z,8.27
2023-09-11T15:00:09.658Z,7.83
2023-09-11T15:04:35.343Z,8.10
2023-09-11T15:08:40.097Z,9.20
2023-09-11T15:12:43.699Z,9.43
2023-09-11T15:16:47.274Z,10.00
2023-09-11T15:20:50.685Z,11.00
2023-09-11T15:24:57.830Z,9.77
2023-09-11T15:29:01.084Z,10.07
2023-09-11T15:33:04.995Z,10.73
2023-09-11T15:37:15.205Z,10.30
2023-09-11T15:41:20.725Z,11.00
2023-09-11T15:45:25.348Z,10.43
2023-09-11T15:49:29.180Z,10.90
2023-09-11T15:53:33.139Z,11.50
2023-09-11T15:57:39.286Z,10.87
2023-09-11T16:01:43.784Z,11.77
2023-09-11T16:05:49.996Z,11.47
2023-09-11T16:09:54.161Z,12.50
2023-09-11T16:19:22.691Z,11.73
2023-09-11T16:23:27.271Z,11.60
2023-09-11T16:27:31.522Z,12.43
2023-09-11T16:31:36.211Z,13.77
2023-09-11T16:35:43.157Z,11.87
2023-09-11T16:39:47.528Z,11.23
2023-09-11T16:43:51.793Z,12.87
2023-09-11T16:47:57.811Z,13.47
2023-09-11T16:52:03.868Z,14.07
2023-09-11T16:56:08.685Z,14.83
2023-09-11T17:00:15.074Z,13.60
2023-09-11T17:04:42.862Z,15.40
2023-09-11T17:08:52.194Z,13.20
2023-09-11T17:12:56.679Z,15.23
2023-09-11T17:17:01.306Z,14.57
2023-09-11T17:21:07.178Z,14.40
2023-09-11T17:25:13.831Z,14.83
2023-09-11T17:29:18.453Z,16.07
2023-09-11T17:33:23.706Z,14.17
2023-09-11T17:37:28.213Z,14.30
2023-09-11T17:41:35.336Z,15.17
2023-09-11T17:45:40.109Z,15.80
2023-09-11T17:49:45.749Z,16.30
2023-09-11T17:53:53.082Z,15.27
2023-09-11T17:57:58.361Z,15.43
2023-09-11T18:02:04.715Z,16.00
2023-09-11T18:06:10.992Z,16.60
2023-09-11T18:10:16.476Z,17.77
2023-09-11T18:14:27.196Z,15.87
2023-09-11T18:18:35.042Z,16.77
2023-09-11T18:22:48.262Z,16.93
2023-09-11T18:26:53.146Z,16.63
2023-09-11T18:31:00.105Z,17.13
2023-09-11T18:35:08.797Z,15.47
2023-09-11T18:39:23.283Z,17.80
2023-09-11T18:43:33.264Z,16.67
2023-09-11T18:47:49.520Z,16.40
2023-09-11T18:51:57.874Z,17.03
2023-09-11T18:56:06.174Z,16.03
2023-09-11T19:00:15.148Z,16.43
2023-09-11T19:04:26.768Z,16.87
2023-09-11T19:08:33.541Z,17.10
2023-09-11T19:12:43.699Z,17.03
2023-09-11T19:16:53.512Z,18.07
2023-09-11T19:21:01.270Z,18.53
2023-09-11T19:25:10.514Z,18.80
2023-09-11T19:29:19.803Z,18.73
2023-09-11T19:33:25.903Z,17.93
2023-09-11T19:37:37.916Z,17.67
2023-09-11T19:41:45.203Z,18.10
2023-09-11T19:45:55.628Z,18.77
2023-09-11T19:50:02.639Z,18.13
2023-09-11T19:54:09.292Z,18.77
2023-09-11T19:58:12.896Z,18.20
2023-09-11T20:02:24.670Z,19.37
2023-09-11T20:06:29.837Z,17.20
2023-09-11T20:10:36.944Z,19.13
2023-09-11T20:15:00.216Z,18.90
2023-09-11T20:19:24.240Z,20.70
2023-09-11T20:23:32.149Z,17.63
2023-09-11T20:27:54.644Z,17.87
2023-09-11T20:32:03.220Z,19.87
2023-09-11T20:36:34.603Z,18.97
2023-09-11T20:40:49.115Z,20.27
2023-09-11T20:44:54.844Z,19.43
2023-09-11T20:49:08.735Z,19.60
2023-09-11T20:53:12.941Z,18.40
2023-09-11T20:57:23.220Z,19.17
2023-09-11T21:01:27.960Z,17.97
2023-09-11T21:05:31.650Z,20.50
2023-09-11T21:09:35.138Z,20.40
2023-09-11T21:13:38.548Z,20.73
2023-09-11T21:17:43.214Z,20.73
2023-09-11T21:21:47.604Z,20.93
2023-09-11T21:25:52.485Z,20.70
2023-09-11T21:29:57.948Z,20.30
2023-09-11T21:34:02.678Z,22.40
2023-09-11T21:38:06.126Z,22.77
2023-09-11T21:42:09.628Z,21.47
2023-09-11T21:46:13.723Z,22.60
2023-09-11T21:50:18.505Z,23.10
2023-09-11T21:54:23.103Z,23.60
2023-09-11T21:58:27.434Z,22.40
2023-09-11T22:02:30.945Z,22.77
2023-09-11T22:06:36.010Z,23.77
2023-09-11T22:10:42.042Z,23.60
2023-09-11T22:14:48.242Z,23.73
2023-09-11T22:18:51.611Z,24.40
2023-09-11T22:22:56.411Z,24.93
2023-09-11T22:27:06.164Z,23.33
2023-09-11T22:31:13.131Z,27.03
2023-09-11T22:35:16.491Z,27.20
2023-09-11T22:39:21.366Z,26.23
2023-09-11T22:43:24.742Z,28.00
2023-09-11T22:47:29.097Z,28.00
2023-09-11T22:51:32.477Z,26.80
2023-09-11T22:55:39.938Z,25.07
2023-09-11T22:59:43.452Z,26.57
2023-09-11T23:03:47.580Z,27.53
2023-09-11T23:07:52.466Z,29.07
2023-09-11T23:11:57.263Z,27.07
2023-09-11T23:16:01.705Z,31.63
2023-09-11T23:20:13.466Z,29.70
2023-09-11T23:24:17.170Z,29.10
2023-09-11T23:28:21.913Z,31.13
2023-09-11T23:32:25.261Z,31.40
2023-09-11T23:36:28.687Z,28.83
2023-09-11T23:40:32.156Z,31.20
2023-09-11T23:44:36.778Z,31.20
2023-09-11T23:48:40.251Z,32.70
2023-09-11T23:52:43.789Z,33.17
2023-09-11T23:56:47.080Z,31.80
